Time;durP1;ratioP1;P1;durP2;ratioP2;P2;SDS_P1;SDS_P2;PMS_P1;PMS_P2;Temp;Humidity;BMP_temperature;BMP_pressure;BME280_temperature;BME280_humidity;BME280_pressure;Samples;Min_cycle;Max_cycle;Signal;HPM_P1;HPM_P2
2021/07/22 00:01:36;;;;;;;33.90;14.73;;;;;;;16.88;85.06;102550.75;5038689;28;20088;-76
2021/07/22 00:04:05;;;;;;;34.08;13.32;;;;;;;16.86;84.99;102538.25;5036415;28;20556;-77
2021/07/22 00:06:32;;;;;;;31.48;13.55;;;;;;;16.87;83.57;102542.69;5041463;28;20064;-76
2021/07/22 00:11:47;;;;;;;30.92;12.35;;;;;;;16.80;82.91;102545.56;4751730;26;20145;-76
2021/07/22 00:14:15;;;;;;;33.50;12.90;;;;;;;16.76;83.62;102538.50;5000031;28;20148;-76
2021/07/22 00:16:43;;;;;;;23.10;11.68;;;;;;;16.73;83.35;102535.00;4999632;28;20061;-76
2021/07/22 00:19:11;;;;;;;26.60;11.57;;;;;;;16.69;83.74;102533.34;5002161;28;20152;-76
2021/07/22 00:21:38;;;;;;;28.85;11.32;;;;;;;16.67;84.38;102544.19;5002251;28;20097;-77
2021/07/22 00:24:07;;;;;;;31.40;14.25;;;;;;;16.64;84.43;102538.00;5000033;28;20345;-76
2021/07/22 00:26:38;;;;;;;28.48;12.38;;;;;;;16.64;84.18;102540.69;5003877;28;20506;-76
2021/07/22 00:29:07;;;;;;;23.95;10.93;;;;;;;16.60;84.35;102531.78;5001289;28;20066;-76
2021/07/22 00:31:34;;;;;;;25.02;11.68;;;;;;;16.58;85.39;102534.56;5003296;28;20101;-76
2021/07/22 00:34:02;;;;;;;30.40;13.63;;;;;;;16.53;85.89;102539.22;5003041;28;20432;-76
2021/07/22 00:36:30;;;;;;;30.83;11.90;;;;;;;16.47;86.25;102536.69;4999396;28;20065;-76
2021/07/22 00:38:57;;;;;;;28.73;13.02;;;;;;;16.43;86.23;102533.22;5002643;28;20057;-76
2021/07/22 00:41:25;;;;;;;28.38;12.57;;;;;;;16.42;85.87;102530.56;5003031;28;20100;-77
2021/07/22 00:43:53;;;;;;;26.98;12.65;;;;;;;16.48;86.81;102532.19;5001483;28;20089;-76
2021/07/22 00:46:22;;;;;;;29.70;13.15;;;;;;;16.45;85.75;102525.09;5001242;28;20061;-77
2021/07/22 00:48:50;;;;;;;28.30;11.82;;;;;;;16.44;85.76;102531.38;4999180;28;20100;-76
2021/07/22 00:51:17;;;;;;;26.95;11.85;;;;;;;16.41;85.27;102521.59;5003463;28;20066;-75
2021/07/22 00:53:45;;;;;;;27.92;12.30;;;;;;;16.39;85.99;102523.44;5001212;28;20120;-76
2021/07/22 00:56:13;;;;;;;32.38;13.25;;;;;;;16.34;86.21;102521.81;5000609;28;20102;-76
2021/07/22 00:58:40;;;;;;;32.83;13.20;;;;;;;16.33;86.43;102525.44;5003239;28;20066;-76
2021/07/22 01:01:08;;;;;;;30.67;11.75;;;;;;;16.32;85.82;102529.06;4999873;28;20065;-76
2021/07/22 01:03:38;;;;;;;29.45;12.88;;;;;;;16.28;86.68;102524.69;5001282;28;20068;-76
2021/07/22 01:06:06;;;;;;;28.85;13.50;;;;;;;16.24;87.12;102529.28;5002222;28;20495;-76
2021/07/22 01:08:34;;;;;;;34.22;14.20;;;;;;;16.20;87.38;102525.78;5001547;28;20448;-77
2021/07/22 01:11:01;;;;;;;26.52;12.75;;;;;;;16.17;87.12;102527.69;5000809;28;20089;-76
2021/07/22 01:13:29;;;;;;;33.47;13.52;;;;;;;16.14;87.14;102525.09;4998771;28;20159;-76
2021/07/22 01:15:57;;;;;;;26.70;12.07;;;;;;;16.17;87.82;102522.31;5002491;28;20065;-77
2021/07/22 01:18:25;;;;;;;31.02;12.80;;;;;;;16.14;87.73;102526.00;4999428;28;20105;-76
2021/07/22 01:20:54;;;;;;;35.65;14.15;;;;;;;16.11;88.59;102520.69;5001209;28;20066;-77
2021/07/22 01:23:21;;;;;;;34.30;13.38;;;;;;;16.13;88.39;102524.22;4996688;28;20361;-76
2021/07/22 01:25:50;;;;;;;32.05;13.73;;;;;;;16.10;88.66;102524.28;5001854;28;20046;-76
2021/07/22 01:28:18;;;;;;;31.05;12.63;;;;;;;16.10;87.84;102520.72;4999827;28;20061;-76
2021/07/22 01:30:46;;;;;;;35.38;13.95;;;;;;;16.04;88.92;102519.97;4998754;28;20124;-76
2021/07/22 01:33:14;;;;;;;29.35;13.75;;;;;;;16.03;87.97;102523.59;5001389;28;20116;-72
2021/07/22 01:35:42;;;;;;;28.90;14.00;;;;;;;15.99;88.85;102521.91;5000071;28;20073;-72
2021/07/22 01:38:11;;;;;;;30.15;13.75;;;;;;;15.96;89.18;102526.50;4997897;28;20066;-72
2021/07/22 01:40:38;;;;;;;32.38;14.63;;;;;;;15.94;88.96;102518.47;5000696;28;20145;-72
2021/07/22 01:43:06;;;;;;;32.45;13.85;;;;;;;15.92;89.11;102522.13;4999515;28;20137;-72
2021/07/22 01:45:34;;;;;;;32.25;13.80;;;;;;;15.92;89.62;102519.44;4998617;28;20135;-72
2021/07/22 01:48:02;;;;;;;30.55;14.13;;;;;;;15.90;89.39;102522.16;4997778;28;20404;-72
2021/07/22 01:50:29;;;;;;;35.53;14.50;;;;;;;15.91;89.72;102523.06;4997502;28;20066;-72
2021/07/22 01:52:57;;;;;;;40.70;16.38;;;;;;;15.90;90.31;102523.97;5000494;28;20088;-72
2021/07/22 01:55:26;;;;;;;35.97;14.50;;;;;;;15.88;89.41;102518.63;5000137;28;20387;-72
2021/07/22 01:57:56;;;;;;;37.10;14.95;;;;;;;15.86;89.70;102523.19;4999218;28;20065;-72
2021/07/22 02:00:24;;;;;;;33.65;14.82;;;;;;;15.86;89.87;102523.19;4998391;28;20061;-72
2021/07/22 02:02:52;;;;;;;28.95;13.80;;;;;;;15.84;89.98;102516.97;4999189;28;20374;-72
2021/07/22 02:05:20;;;;;;;36.22;15.27;;;;;;;15.85;89.61;102516.91;4998654;28;20069;-72
2021/07/22 02:07:47;;;;;;;30.95;13.75;;;;;;;15.82;90.22;102519.69;4999330;28;20042;-72
2021/07/22 02:10:15;;;;;;;35.63;14.73;;;;;;;15.78;89.98;102514.44;5000247;28;20093;-72
2021/07/22 02:12:44;;;;;;;36.95;14.98;;;;;;;15.79;90.17;102521.59;4999290;28;20062;-72
2021/07/22 02:15:12;;;;;;;33.00;15.38;;;;;;;15.77;91.16;102516.25;4999587;28;20484;-71
2021/07/22 02:17:40;;;;;;;34.38;15.80;;;;;;;15.74;91.11;102518.97;4999195;28;20063;-73
2021/07/22 02:20:09;;;;;;;38.13;16.55;;;;;;;15.73;91.12;102516.31;4998879;28;20168;-72
2021/07/22 02:22:37;;;;;;;42.20;18.40;;;;;;;15.73;91.44;102513.63;5000022;28;20080;-72
2021/07/22 02:25:08;;;;;;;34.63;16.25;;;;;;;15.74;91.23;102518.09;4996168;28;20115;-72
2021/07/22 02:27:36;;;;;;;42.10;18.17;;;;;;;15.71;91.40;102520.88;4999560;28;20331;-72
2021/07/22 02:30:07;;;;;;;44.08;18.48;;;;;;;15.71;92.31;102515.50;4999003;28;20061;-72
2021/07/22 02:32:35;;;;;;;40.70;16.83;;;;;;;15.72;91.94;102523.53;4993767;28;20085;-72
2021/07/22 02:35:02;;;;;;;37.90;16.92;;;;;;;15.72;91.87;102515.44;4998284;28;20590;-72
2021/07/22 02:37:30;;;;;;;43.38;16.92;;;;;;;15.74;91.68;102520.81;4999078;28;20097;-72
2021/07/22 02:39:58;;;;;;;37.85;17.67;;;;;;;15.74;91.82;102528.88;4999441;28;20493;-71
2021/07/22 02:42:25;;;;;;;40.22;17.27;;;;;;;15.74;91.29;102518.09;5000262;28;20483;-72
2021/07/22 02:44:54;;;;;;;38.10;16.08;;;;;;;15.71;92.54;102518.19;4997567;28;20116;-72
2021/07/22 02:47:22;;;;;;;38.55;17.08;;;;;;;15.71;92.22;102521.75;4997950;28;20069;-71
2021/07/22 02:49:50;;;;;;;41.22;16.88;;;;;;;15.67;92.14;102520.06;4997150;28;20058;-71
2021/07/22 02:52:18;;;;;;;40.72;18.08;;;;;;;15.65;92.47;102524.63;4998230;28;20143;-71
2021/07/22 02:54:45;;;;;;;40.28;17.35;;;;;;;15.60;92.47;102523.88;4999441;28;20070;-71
2021/07/22 02:57:13;;;;;;;34.40;16.15;;;;;;;15.60;93.06;102532.81;4996701;28;20109;-72
2021/07/22 02:59:42;;;;;;;35.55;16.38;;;;;;;15.62;93.04;102527.38;5000070;28;20070;-72
2021/07/22 03:02:09;;;;;;;38.45;16.48;;;;;;;15.60;93.15;102540.00;4996444;28;20292;-72
2021/07/22 03:04:39;;;;;;;38.28;16.20;;;;;;;15.53;93.32;102533.00;4998923;28;20066;-72
2021/07/22 03:07:06;;;;;;;36.53;16.42;;;;;;;15.62;93.69;102535.47;4998130;28;20070;-72
2021/07/22 03:09:34;;;;;;;39.65;17.50;;;;;;;15.61;92.77;102529.22;4995277;28;20097;-72
2021/07/22 03:12:02;;;;;;;35.03;17.02;;;;;;;15.61;93.33;102531.91;4999945;28;20062;-72
2021/07/22 03:14:30;;;;;;;36.85;17.23;;;;;;;15.60;92.88;102530.13;4996643;28;20074;-71
2021/07/22 03:16:57;;;;;;;37.33;16.45;;;;;;;15.57;92.66;102532.00;4998115;28;20068;-73
2021/07/22 03:19:25;;;;;;;40.90;17.23;;;;;;;15.56;93.15;102530.22;4997633;28;20050;-71
2021/07/22 03:21:54;;;;;;;42.67;17.63;;;;;;;15.58;93.50;102528.38;4996920;28;20061;-71
2021/07/22 03:24:22;;;;;;;38.70;17.38;;;;;;;15.56;92.80;102525.75;4999429;28;20116;-71
2021/07/22 03:26:49;;;;;;;41.30;15.90;;;;;;;15.57;92.87;102532.00;4996239;28;20066;-71
2021/07/22 03:29:17;;;;;;;34.03;16.10;;;;;;;15.56;92.98;102528.44;4998321;28;20070;-71
2021/07/22 03:31:45;;;;;;;35.50;15.75;;;;;;;15.57;93.35;102529.31;5001585;28;20073;-71
2021/07/22 03:34:14;;;;;;;35.90;17.00;;;;;;;15.56;92.64;102520.38;4995105;28;20070;-74
2021/07/22 03:36:44;;;;;;;35.55;15.43;;;;;;;15.50;92.14;102523.22;5003083;28;20112;-71
2021/07/22 03:39:13;;;;;;;38.25;16.02;;;;;;;15.49;91.76;102525.03;5000884;28;20065;-70
2021/07/22 03:41:47;;;;;;;34.05;15.98;;;;;;;15.43;91.43;102529.69;5003660;28;20132;-71
2021/07/22 03:44:15;;;;;;;33.15;14.23;;;;;;;15.40;91.29;102527.94;5002885;28;20557;-71
2021/07/22 03:46:43;;;;;;;29.02;13.65;;;;;;;15.40;90.63;102532.44;5000835;28;20432;-71
2021/07/22 03:49:11;;;;;;;31.10;14.30;;;;;;;15.41;90.81;102529.72;5007284;28;20530;-76
2021/07/22 03:51:38;;;;;;;29.83;13.35;;;;;;;15.38;90.34;102528.91;5003548;28;20748;-76
2021/07/22 03:54:06;;;;;;;30.23;11.90;;;;;;;15.41;89.71;102529.72;5004642;28;20604;-77
2021/07/22 03:56:36;;;;;;;28.00;11.68;;;;;;;15.41;90.10;102526.13;5006342;28;20069;-77
2021/07/22 03:59:04;;;;;;;26.50;11.35;;;;;;;15.36;89.96;102536.13;5001200;28;20127;-77
2021/07/22 04:01:31;;;;;;;26.33;11.93;;;;;;;15.34;89.72;102530.81;5007013;28;20088;-77
2021/07/22 04:03:59;;;;;;;30.23;12.25;;;;;;;15.28;90.11;102529.13;5003428;28;20077;-77
2021/07/22 04:06:27;;;;;;;28.48;12.45;;;;;;;15.23;90.45;102531.03;5004682;28;20099;-77
2021/07/22 04:08:55;;;;;;;27.92;13.02;;;;;;;15.24;90.68;102531.97;5006167;28;20076;-77
2021/07/22 04:11:22;;;;;;;32.42;13.13;;;;;;;15.23;90.75;102522.97;5002359;28;20260;-77
2021/07/22 04:13:51;;;;;;;33.97;13.43;;;;;;;15.26;90.92;102522.91;5007862;28;20065;-77
2021/07/22 04:16:19;;;;;;;32.70;15.48;;;;;;;15.23;91.17;102528.34;5005838;28;20313;-77
2021/07/22 04:18:47;;;;;;;34.22;15.50;;;;;;;15.20;91.21;102531.13;5006038;28;20050;-76
2021/07/22 04:21:15;;;;;;;35.60;15.73;;;;;;;15.20;92.11;102522.19;5004699;28;20077;-78
2021/07/22 04:23:43;;;;;;;36.67;17.05;;;;;;;15.21;91.98;102532.91;5001267;28;20085;-78
2021/07/22 04:26:14;;;;;;;38.08;18.23;;;;;;;15.18;92.22;102532.97;5006629;28;20058;-78
2021/07/22 04:28:42;;;;;;;45.15;18.10;;;;;;;15.18;92.69;102540.16;5002976;28;20290;-78
2021/07/22 04:31:15;;;;;;;40.50;17.85;;;;;;;15.23;92.39;102544.50;5001842;28;20061;-77
2021/07/22 04:33:43;;;;;;;39.58;17.27;;;;;;;15.21;92.58;102534.72;5003165;28;20085;-77
2021/07/22 04:36:11;;;;;;;38.72;16.33;;;;;;;15.25;91.86;102537.25;5001637;28;20107;-77
2021/07/22 04:38:39;;;;;;;32.88;14.57;;;;;;;15.29;91.94;102538.97;5003998;28;20065;-77
2021/07/22 04:41:06;;;;;;;32.78;15.73;;;;;;;15.30;92.29;102539.84;4999513;28;20389;-77
2021/07/22 04:43:34;;;;;;;35.13;14.70;;;;;;;15.32;92.02;102538.00;5002878;28;20093;-77
2021/07/22 04:46:02;;;;;;;35.83;16.38;;;;;;;15.32;91.85;102544.28;5004613;28;21874;-77
2021/07/22 04:48:32;;;;;;;29.77;14.55;;;;;;;15.30;91.84;102540.72;4996612;28;20070;-72
2021/07/22 04:51:04;;;;;;;30.83;14.25;;;;;;;15.36;91.73;102541.50;5002785;28;20065;-72
2021/07/22 04:53:31;;;;;;;28.55;13.90;;;;;;;15.38;91.62;102537.84;4995816;28;20050;-71
2021/07/22 04:55:59;;;;;;;28.27;13.68;;;;;;;15.44;90.97;102544.88;4999738;28;20069;-71
2021/07/22 04:58:27;;;;;;;30.92;13.25;;;;;;;15.47;90.70;102542.13;5001100;28;20372;-72
2021/07/22 05:00:55;;;;;;;28.77;13.60;;;;;;;15.58;90.44;102537.34;5000547;28;20191;-71
2021/07/22 05:03:22;;;;;;;28.75;13.52;;;;;;;15.68;89.73;102543.34;5000325;28;20145;-71
2021/07/22 05:05:51;;;;;;;27.98;13.82;;;;;;;15.76;89.22;102544.06;4999351;28;20336;-71
2021/07/22 05:08:23;;;;;;;31.38;14.55;;;;;;;15.81;89.12;102544.81;5001348;28;20042;-71
2021/07/22 05:10:51;;;;;;;29.33;12.88;;;;;;;16.04;88.09;102546.91;5001015;28;20141;-71
2021/07/22 05:13:18;;;;;;;27.58;12.48;;;;;;;16.09;87.75;102545.88;4998948;28;20356;-72
2021/07/22 05:15:46;;;;;;;34.50;12.52;;;;;;;16.18;87.36;102533.03;5001842;28;20146;-71
2021/07/22 05:18:15;;;;;;;25.30;12.27;;;;;;;16.38;86.49;102542.38;4997018;28;20076;-72
2021/07/22 05:20:44;;;;;;;29.13;11.88;;;;;;;16.56;86.14;102543.59;4999195;28;20069;-71
2021/07/22 05:23:13;;;;;;;26.50;12.68;;;;;;;16.74;85.20;102531.41;4999721;28;20058;-72
2021/07/22 05:25:41;;;;;;;22.17;11.50;;;;;;;16.75;84.71;102543.94;4998239;28;20077;-71
2021/07/22 05:28:08;;;;;;;25.42;11.07;;;;;;;16.86;84.17;102539.13;5001074;28;20097;-71
2021/07/22 05:30:36;;;;;;;23.40;11.00;;;;;;;16.98;83.87;102540.56;4998835;28;20093;-71
2021/07/22 05:33:05;;;;;;;20.75;10.50;;;;;;;17.05;83.23;102539.41;5001878;28;20058;-71
2021/07/22 05:35:33;;;;;;;27.10;12.07;;;;;;;17.29;82.95;102534.16;5004181;28;20093;-71
2021/07/22 05:38:01;;;;;;;31.33;12.05;;;;;;;17.38;81.97;102541.03;4999413;28;20407;-71
2021/07/22 05:40:30;;;;;;;24.05;11.18;;;;;;;17.41;81.57;102530.16;4995768;28;20535;-77
2021/07/22 05:42:57;;;;;;;24.48;10.88;;;;;;;17.50;81.16;102544.22;4999403;28;20057;-77
2021/07/22 05:45:25;;;;;;;21.58;10.05;;;;;;;17.82;80.04;102538.63;5002655;28;20065;-78
2021/07/22 05:47:53;;;;;;;26.25;10.85;;;;;;;18.02;79.25;102537.94;4999566;28;20436;-78
2021/07/22 05:50:21;;;;;;;22.33;10.02;;;;;;;17.83;79.56;102533.16;5000598;28;20405;-77
2021/07/22 05:52:48;;;;;;;18.40;9.32;;;;;;;17.85;79.40;102533.13;5002569;28;20319;-78
2021/07/22 05:55:17;;;;;;;22.00;9.70;;;;;;;17.99;78.26;102532.66;4999038;28;20593;-77
2021/07/22 05:57:45;;;;;;;22.70;9.90;;;;;;;17.73;78.81;102537.13;5002499;28;20367;-77
2021/07/22 06:00:14;;;;;;;22.17;9.00;;;;;;;17.96;78.52;102532.75;5000595;28;20143;-78
2021/07/22 06:02:42;;;;;;;22.25;9.63;;;;;;;17.69;77.71;102538.16;4999939;28;20092;-77
2021/07/22 06:05:10;;;;;;;20.73;10.02;;;;;;;17.83;77.67;102529.59;5001148;28;20066;-77
2021/07/22 06:07:38;;;;;;;19.58;9.38;;;;;;;17.85;78.03;102530.41;4997402;28;20061;-77
2021/07/22 06:10:06;;;;;;;19.23;8.93;;;;;;;17.97;78.02;102530.00;4999998;28;20345;-77
2021/07/22 06:12:34;;;;;;;18.67;9.00;;;;;;;17.83;77.36;102535.88;4999588;28;20136;-77
2021/07/22 06:15:04;;;;;;;20.27;9.02;;;;;;;17.99;77.65;102532.66;4998147;28;20062;-78
2021/07/22 06:17:34;;;;;;;20.77;9.75;;;;;;;17.96;77.04;102538.16;5000842;28;20069;-76
2021/07/22 06:20:03;;;;;;;16.40;7.80;;;;;;;18.09;77.37;102526.84;4998644;28;20064;-77
2021/07/22 06:22:31;;;;;;;19.67;8.90;;;;;;;18.00;76.53;102538.00;5000873;28;20066;-77
2021/07/22 06:24:59;;;;;;;18.95;9.50;;;;;;;18.24;76.87;102528.09;5000270;28;20388;-77
2021/07/22 06:27:26;;;;;;;20.35;9.57;;;;;;;18.17;75.96;102534.66;5000191;28;20351;-76
2021/07/22 06:29:54;;;;;;;18.27;8.70;;;;;;;18.91;75.06;102531.81;4999200;28;21318;-76
2021/07/22 06:32:23;;;;;;;18.90;8.68;;;;;;;18.97;73.56;102537.00;4996926;28;20156;-76
2021/07/22 06:34:50;;;;;;;20.00;9.00;;;;;;;19.54;72.00;102537.31;4998771;28;20062;-76
2021/07/22 06:37:18;;;;;;;18.23;9.40;;;;;;;19.90;69.31;102538.53;4999858;28;20093;-76
2021/07/22 06:39:46;;;;;;;17.70;9.02;;;;;;;20.20;68.47;102530.84;5000601;28;20220;-76
2021/07/22 06:42:14;;;;;;;21.27;8.80;;;;;;;20.22;67.44;102528.94;4999634;28;20649;-77
2021/07/22 06:44:42;;;;;;;17.95;8.65;;;;;;;20.26;68.25;102535.97;5001132;28;20084;-77
2021/07/22 06:47:09;;;;;;;16.38;8.35;;;;;;;20.71;66.49;102529.34;5000126;28;20070;-77
2021/07/22 06:49:38;;;;;;;21.75;8.85;;;;;;;20.76;65.48;102536.41;4998714;28;20115;-77
2021/07/22 06:52:06;;;;;;;15.80;7.65;;;;;;;21.07;64.92;102533.94;5000139;28;20116;-78
2021/07/22 06:54:35;;;;;;;17.20;8.55;;;;;;;21.01;64.44;102527.91;4995009;28;20254;-77
2021/07/22 06:57:03;;;;;;;17.42;8.77;;;;;;;21.12;64.38;102531.00;4997160;28;20551;-76
2021/07/22 06:59:31;;;;;;;17.98;8.00;;;;;;;21.32;63.59;102538.13;5000547;28;20470;-76
2021/07/22 07:01:59;;;;;;;17.98;8.82;;;;;;;21.06;64.20;102528.56;4997866;28;20066;-75
2021/07/22 07:04:27;;;;;;;19.75;9.00;;;;;;;21.27;63.96;102530.22;4999770;28;20317;-74
2021/07/22 07:06:57;;;;;;;18.30;9.20;;;;;;;21.72;63.14;102529.78;4998688;28;20108;-74
2021/07/22 07:09:27;;;;;;;19.70;8.85;;;;;;;21.55;62.26;102536.97;4997805;28;20065;-75
2021/07/22 07:11:55;;;;;;;19.50;9.25;;;;;;;21.67;63.26;102540.03;5005063;28;20100;-75
2021/07/22 07:14:22;;;;;;;18.35;9.13;;;;;;;21.57;62.10;102540.50;5002591;28;20062;-77
2021/07/22 07:16:50;;;;;;;18.83;9.50;;;;;;;21.94;61.88;102533.13;5004076;28;20148;-76
2021/07/22 07:19:18;;;;;;;21.30;10.32;;;;;;;21.01;63.55;102528.81;4998590;28;20054;-77
2021/07/22 07:21:45;;;;;;;18.73;8.82;;;;;;;21.29;63.59;102532.00;5004111;28;20293;-76
2021/07/22 07:24:14;;;;;;;18.73;8.95;;;;;;;21.07;63.57;102542.06;5004374;28;20561;-77
2021/07/22 07:26:43;;;;;;;18.63;9.35;;;;;;;21.48;63.50;102542.81;5002606;28;20168;-77
2021/07/22 07:29:11;;;;;;;21.13;9.77;;;;;;;22.05;61.37;102528.94;5002494;28;20053;-77
2021/07/22 07:31:40;;;;;;;18.10;8.77;;;;;;;22.04;61.15;102535.34;5006520;28;20069;-77
2021/07/22 07:34:07;;;;;;;18.13;9.20;;;;;;;22.46;60.71;102528.53;5001503;28;20062;-77
2021/07/22 07:36:39;;;;;;;16.52;8.80;;;;;;;22.38;60.00;102532.56;5004679;28;20050;-77
2021/07/22 07:39:07;;;;;;;15.98;8.50;;;;;;;22.39;59.28;102536.19;5004055;28;20046;-77
2021/07/22 07:41:36;;;;;;;17.63;8.88;;;;;;;22.58;59.27;102533.31;5003439;28;20557;-77
2021/07/22 07:44:04;;;;;;;18.40;8.88;;;;;;;22.94;58.33;102533.03;5000880;28;20097;-77
2021/07/22 07:46:32;;;;;;;18.30;9.43;;;;;;;23.50;56.92;102538.00;5002097;28;20512;-76
2021/07/22 07:48:59;;;;;;;17.48;9.15;;;;;;;23.27;56.50;102537.50;5006519;28;20391;-77
2021/07/22 07:51:27;;;;;;;18.73;8.90;;;;;;;23.85;55.54;102540.44;5003887;28;20080;-71
2021/07/22 07:53:55;;;;;;;17.35;8.32;;;;;;;23.15;55.92;102545.53;5002063;28;20058;-71
2021/07/22 07:56:23;;;;;;;21.48;9.38;;;;;;;23.62;56.03;102536.38;5004937;28;20357;-71
2021/07/22 07:58:52;;;;;;;18.60;9.43;;;;;;;23.28;56.30;102544.72;5002046;28;20072;-71
2021/07/22 08:01:21;;;;;;;18.38;8.60;;;;;;;22.70;57.20;102542.63;5006724;28;20066;-71
2021/07/22 08:03:49;;;;;;;14.93;8.32;;;;;;;23.14;56.97;102539.22;5003819;28;20061;-71
2021/07/22 08:06:17;;;;;;;21.55;9.82;;;;;;;23.68;54.63;102535.97;5000677;28;20319;-71
2021/07/22 08:08:44;;;;;;;18.88;9.80;;;;;;;22.35;57.66;102535.44;5000872;28;20061;-71
2021/07/22 08:11:12;;;;;;;22.52;9.45;;;;;;;22.72;57.55;102540.69;5000285;28;20077;-71
2021/07/22 08:13:40;;;;;;;20.50;9.23;;;;;;;23.95;54.76;102543.47;5002475;28;20062;-71
2021/07/22 08:16:15;;;;;;;19.73;9.25;;;;;;;23.81;53.53;102534.28;5000650;28;20128;-71
2021/07/22 08:18:44;;;;;;;19.70;8.98;;;;;;;22.93;55.86;102544.00;5002271;28;20081;-77
2021/07/22 08:21:12;;;;;;;16.05;8.77;;;;;;;22.63;56.80;102533.94;5000758;28;20379;-77
2021/07/22 08:23:40;;;;;;;16.13;8.82;;;;;;;22.60;57.10;102541.38;5002064;28;20128;-77
2021/07/22 08:26:09;;;;;;;18.90;9.32;;;;;;;22.60;56.91;102538.66;5006417;28;20101;-76
2021/07/22 08:28:37;;;;;;;17.38;7.68;;;;;;;22.67;56.79;102532.78;5001145;28;20070;-76
2021/07/22 08:31:05;;;;;;;14.75;8.30;;;;;;;23.84;54.10;102535.97;4999839;28;20065;-77
2021/07/22 08:33:34;;;;;;;18.17;8.48;;;;;;;22.86;55.06;102539.91;5001606;28;20155;-70
2021/07/22 08:36:02;;;;;;;17.88;8.52;;;;;;;23.99;53.09;102529.56;5000213;28;20066;-70
2021/07/22 08:38:30;;;;;;;15.45;9.05;;;;;;;24.05;53.58;102540.06;5002258;28;20097;-71
2021/07/22 08:40:58;;;;;;;16.02;8.52;;;;;;;24.35;52.13;102528.22;5000506;28;20100;-70
2021/07/22 08:43:27;;;;;;;16.83;8.25;;;;;;;24.96;50.90;102515.16;5001171;28;20523;-71
2021/07/22 08:45:55;;;;;;;17.75;7.97;;;;;;;24.48;51.45;102517.38;4999361;28;20112;-71
2021/07/22 08:48:23;;;;;;;15.48;8.02;;;;;;;25.16;49.37;102515.66;5000783;28;20066;-71
2021/07/22 08:50:52;;;;;;;15.32;8.68;;;;;;;23.99;51.53;102528.66;5002636;28;20145;-71
2021/07/22 08:53:21;;;;;;;16.50;8.55;;;;;;;23.73;51.69;102522.94;4997759;28;20069;-71
2021/07/22 08:55:49;;;;;;;14.27;8.70;;;;;;;22.61;54.47;102521.38;4999581;28;20405;-73
2021/07/22 08:58:18;;;;;;;15.05;8.00;;;;;;;22.87;55.10;102523.47;5002395;28;20348;-71
2021/07/22 09:00:46;;;;;;;15.13;8.00;;;;;;;23.40;54.15;102529.50;5000235;28;20071;-71
2021/07/22 09:03:14;;;;;;;15.73;8.52;;;;;;;24.03;52.80;102525.66;5002199;28;20062;-76
2021/07/22 09:05:42;;;;;;;15.25;8.13;;;;;;;24.82;50.30;102517.91;5001457;28;20100;-77
2021/07/22 09:08:11;;;;;;;14.48;8.00;;;;;;;23.85;51.37;102527.72;4998782;28;20076;-76
2021/07/22 09:10:39;;;;;;;14.88;8.23;;;;;;;23.30;52.42;102531.88;5001464;28;20342;-76
2021/07/22 09:13:23;;;;;;;16.75;8.43;;;;;;;23.21;53.02;102524.28;4998466;28;20122;-76
2021/07/22 09:15:52;;;;;;;14.40;8.07;;;;;;;23.58;53.29;102524.78;5005876;28;20467;-71
2021/07/22 09:18:22;;;;;;;16.00;9.10;;;;;;;23.33;53.02;102528.13;4998321;28;20127;-71
2021/07/22 09:20:50;;;;;;;14.57;8.35;;;;;;;22.79;53.98;102530.34;4998300;28;20050;-71
2021/07/22 09:23:21;;;;;;;15.63;8.00;;;;;;;23.08;53.62;102529.53;5002432;28;20614;-71
2021/07/22 09:25:50;;;;;;;13.95;8.30;;;;;;;22.56;53.98;102536.13;4997797;28;20137;-71
2021/07/22 09:28:19;;;;;;;16.25;8.63;;;;;;;22.67;53.92;102530.06;5002625;28;20237;-71
2021/07/22 09:30:58;;;;;;;15.77;7.85;;;;;;;22.60;54.79;102523.22;5000259;28;20062;-71
2021/07/22 09:33:36;;;;;;;16.73;8.75;;;;;;;22.94;54.62;102532.16;4999942;28;20065;-72
2021/07/22 09:36:04;;;;;;;15.10;7.95;;;;;;;23.99;51.22;102529.56;4997524;28;20375;-71
2021/07/22 09:38:33;;;;;;;15.38;8.07;;;;;;;23.85;51.62;102526.81;5000126;28;20519;-71
2021/07/22 09:41:01;;;;;;;17.05;9.13;;;;;;;22.81;53.47;102526.53;5002320;28;20062;-72
2021/07/22 09:43:37;;;;;;;16.33;8.23;;;;;;;22.98;53.76;102525.56;5000084;28;20070;-71
2021/07/22 09:46:05;;;;;;;15.63;8.77;;;;;;;23.53;52.38;102532.38;4999708;28;20453;-72
2021/07/22 09:48:33;;;;;;;16.05;9.20;;;;;;;24.23;49.76;102527.13;5001945;28;20112;-71
2021/07/22 09:51:01;;;;;;;16.75;8.35;;;;;;;24.52;50.35;102524.38;4995818;28;20437;-71
2021/07/22 09:53:29;;;;;;;16.77;8.35;;;;;;;25.77;47.45;102521.50;5002202;28;20072;-71
2021/07/22 09:55:58;;;;;;;15.18;8.95;;;;;;;25.84;46.06;102524.69;4999942;28;20104;-71
2021/07/22 09:58:29;;;;;;;15.68;9.05;;;;;;;24.83;48.65;102521.53;4997756;28;20403;-71
2021/07/22 10:00:58;;;;;;;15.13;8.23;;;;;;;26.19;46.77;102526.81;5000364;28;21111;-72
2021/07/22 10:03:29;;;;;;;14.43;6.97;;;;;;;25.57;45.97;102525.63;4999865;28;20335;-71
2021/07/22 10:05:58;;;;;;;14.45;7.35;;;;;;;24.90;47.63;102529.22;5001545;28;20089;-71
2021/07/22 10:08:27;;;;;;;16.23;8.32;;;;;;;24.71;47.62;102528.69;4998703;28;20076;-72
2021/07/22 10:10:56;;;;;;;14.52;7.88;;;;;;;24.10;49.27;102526.16;4998613;28;20093;-71
2021/07/22 10:13:28;;;;;;;14.45;7.80;;;;;;;24.40;49.01;102526.06;5000450;28;20298;-76
2021/07/22 10:15:58;;;;;;;14.43;6.97;;;;;;;24.85;48.74;102523.19;4999188;28;20061;-74
2021/07/22 10:18:29;;;;;;;14.57;7.55;;;;;;;25.82;45.47;102523.94;5002587;28;20068;-77
2021/07/22 10:20:59;;;;;;;13.63;7.40;;;;;;;26.13;45.36;102519.91;4997957;28;20111;-74
2021/07/22 10:23:28;;;;;;;15.93;8.63;;;;;;;24.98;45.98;102517.78;4998656;28;20125;-75
2021/07/22 10:25:57;;;;;;;15.50;8.73;;;;;;;23.78;49.20;102525.41;5000316;28;20065;-77
2021/07/22 10:28:28;;;;;;;15.30;7.65;;;;;;;23.92;49.50;102527.31;4997631;28;20061;-75
2021/07/22 10:30:56;;;;;;;14.05;7.10;;;;;;;24.37;48.50;102525.38;5000699;28;20062;-71
2021/07/22 10:33:25;;;;;;;13.80;8.23;;;;;;;23.89;49.20;102528.38;4997864;28;20065;-75
2021/07/22 10:35:54;;;;;;;17.85;8.70;;;;;;;23.78;49.40;102529.00;4997140;28;20066;-76
2021/07/22 10:38:23;;;;;;;14.10;8.05;;;;;;;25.40;47.07;102515.00;4997955;28;20070;-76
2021/07/22 10:40:55;;;;;;;14.75;7.40;;;;;;;25.40;45.93;102513.13;4996827;28;20158;-76
2021/07/22 10:43:47;;;;;;;14.48;7.65;;;;;;;26.51;43.18;102509.88;5003284;28;20076;-75
2021/07/22 10:46:16;;;;;;;15.88;7.05;;;;;;;25.28;44.82;102517.56;4996063;28;20085;-75
2021/07/22 10:48:45;;;;;;;13.77;7.60;;;;;;;25.79;44.34;102507.72;4999117;28;20066;-75
2021/07/22 10:51:14;;;;;;;13.25;6.43;;;;;;;26.83;42.07;102508.41;4999625;28;20123;-75
2021/07/22 10:53:51;;;;;;;13.82;7.43;;;;;;;26.51;41.88;102488.88;4997930;28;20447;-71
2021/07/22 10:56:52;;;;;;;13.77;6.53;;;;;;;26.03;43.45;102500.56;5002746;28;20145;-71
2021/07/22 10:59:55;;;;;;;13.60;7.07;;;;;;;26.16;42.86;102491.47;4999429;28;20381;-71
2021/07/22 11:02:43;;;;;;;16.73;7.68;;;;;;;26.14;43.48;102494.31;5002277;28;20062;-71
2021/07/22 11:05:33;;;;;;;12.77;6.82;;;;;;;26.11;43.53;102497.25;4999220;28;20069;-71
2021/07/22 11:08:20;;;;;;;13.60;7.28;;;;;;;27.28;39.67;102490.44;4998830;28;20068;-70
2021/07/22 11:10:55;;;;;;;11.38;6.78;;;;;;;26.09;41.77;102485.56;4997761;28;20093;-71
2021/07/22 11:13:44;;;;;;;13.48;6.97;;;;;;;25.57;43.87;102492.84;4995501;28;20281;-71
2021/07/22 11:16:21;;;;;;;16.77;8.07;;;;;;;25.00;43.80;102487.66;5002712;28;20046;-72
2021/07/22 11:18:57;;;;;;;12.50;6.82;;;;;;;26.78;40.92;102488.72;4996956;28;20103;-72
2021/07/22 11:21:28;;;;;;;14.27;7.10;;;;;;;25.94;43.12;102486.63;5000824;28;20429;-71
2021/07/22 11:24:04;;;;;;;13.25;7.13;;;;;;;26.20;41.58;102479.31;4998877;28;20124;-72